Time;durP1;ratioP1;P1;durP2;ratioP2;P2;SDS_P1;SDS_P2;PMS_P1;PMS_P2;Temp;Humidity;BMP_temperature;BMP_pressure;BME280_temperature;BME280_humidity;BME280_pressure;Samples;Min_cycle;Max_cycle;Signal;HPM_P1;HPM_P2
2022/05/20 00:00:33;;;;;;;31.52;28.23;;;15.20;83.40;;;;;;5038173;28;20076;-90
2022/05/20 00:02:59;;;;;;;29.95;26.23;;;15.10;83.40;;;;;;5043705;28;20038;-89
2022/05/20 00:05:27;;;;;;;32.88;28.85;;;15.10;83.50;;;;;;5035648;28;20034;-89
2022/05/20 00:07:53;;;;;;;30.02;26.85;;;15.20;83.50;;;;;;5034704;28;20067;-89
2022/05/20 00:10:20;;;;;;;31.17;27.67;;;15.10;83.50;;;;;;5046996;28;20101;-91
2022/05/20 00:12:47;;;;;;;32.95;28.48;;;15.10;83.60;;;;;;5035569;28;20081;-91
2022/05/20 00:15:20;;;;;;;35.22;29.38;;;15.20;83.70;;;;;;5047442;28;20048;-90
2022/05/20 00:17:46;;;;;;;32.38;29.17;;;15.10;83.50;;;;;;5040228;28;20034;-91
2022/05/20 00:20:15;;;;;;;34.13;30.45;;;15.10;83.50;;;;;;5042404;28;20040;-88
2022/05/20 00:22:41;;;;;;;32.83;29.38;;;15.00;83.60;;;;;;5026846;28;20034;-88
2022/05/20 00:27:53;;;;;;;30.52;27.33;;;14.80;83.80;;;;;;5037402;28;20039;-88
2022/05/20 00:30:19;;;;;;;30.98;27.60;;;14.80;83.80;;;;;;5034368;28;20034;-88
2022/05/20 00:32:45;;;;;;;31.02;27.15;;;14.70;84.00;;;;;;5039692;28;20037;-89
2022/05/20 00:35:12;;;;;;;28.67;25.52;;;14.70;84.00;;;;;;5015373;28;20041;-88
2022/05/20 00:37:37;;;;;;;30.70;26.48;;;14.70;83.90;;;;;;5035861;28;20044;-89
2022/05/20 00:40:05;;;;;;;30.92;27.10;;;14.70;84.00;;;;;;5042220;28;20046;-89
2022/05/20 00:42:32;;;;;;;32.97;29.48;;;14.70;84.10;;;;;;5030784;28;20109;-89
2022/05/20 00:44:58;;;;;;;30.67;27.30;;;14.70;84.30;;;;;;5024885;28;20083;-89
2022/05/20 00:47:24;;;;;;;32.08;28.50;;;14.70;84.20;;;;;;5033117;28;20037;-88
2022/05/20 00:49:54;;;;;;;33.50;29.85;;;14.70;84.30;;;;;;5030449;28;20508;-88
2022/05/20 00:52:22;;;;;;;33.88;29.35;;;14.60;84.20;;;;;;5030279;28;20049;-90
2022/05/20 00:54:54;;;;;;;32.47;28.95;;;14.60;84.30;;;;;;5030735;28;20369;-89
2022/05/20 00:57:33;;;;;;;32.97;28.17;;;14.70;84.40;;;;;;5021391;28;20456;-88
2022/05/20 01:00:06;;;;;;;32.53;27.83;;;14.70;84.40;;;;;;5029406;28;20041;-90
2022/05/20 01:02:34;;;;;;;30.85;27.52;;;14.60;84.20;;;;;;5028173;28;20096;-90
2022/05/20 01:05:03;;;;;;;31.42;28.02;;;14.70;84.30;;;;;;5026129;28;20064;-90
2022/05/20 01:07:31;;;;;;;31.77;28.30;;;14.60;84.30;;;;;;5031427;28;20076;-89
2022/05/20 01:09:57;;;;;;;31.95;28.52;;;14.60;84.40;;;;;;5035571;28;20037;-89
2022/05/20 01:12:26;;;;;;;35.45;29.38;;;14.60;84.40;;;;;;5022150;28;20034;-90
2022/05/20 01:14:52;;;;;;;32.97;29.27;;;14.60;84.40;;;;;;5015776;28;20070;-90
2022/05/20 01:17:19;;;;;;;35.05;31.33;;;14.60;84.30;;;;;;5025839;28;20061;-91
2022/05/20 01:19:48;;;;;;;36.15;31.13;;;14.60;84.40;;;;;;5025198;28;20743;-90
2022/05/20 01:22:36;;;;;;;35.80;31.98;;;14.50;84.50;;;;;;5024776;28;20072;-89
2022/05/20 01:25:04;;;;;;;37.72;33.72;;;14.40;84.50;;;;;;5021596;28;20033;-90
2022/05/20 01:27:29;;;;;;;37.15;32.30;;;14.30;84.70;;;;;;5017217;28;20033;-88
2022/05/20 01:29:55;;;;;;;37.80;32.80;;;14.30;85.00;;;;;;5017973;28;20092;-88
2022/05/20 01:32:21;;;;;;;35.60;31.73;;;14.30;85.30;;;;;;5020104;28;20114;-92
2022/05/20 01:34:46;;;;;;;35.55;31.85;;;14.30;85.40;;;;;;5029168;28;20052;-91
2022/05/20 01:37:12;;;;;;;39.03;32.88;;;14.30;85.40;;;;;;5036386;28;20037;-89
2022/05/20 01:39:38;;;;;;;36.35;32.22;;;14.30;85.50;;;;;;5037022;28;20089;-88
2022/05/20 01:42:06;;;;;;;37.00;32.60;;;14.30;85.40;;;;;;5035485;28;20057;-88
2022/05/20 01:44:37;;;;;;;35.38;31.58;;;14.30;85.30;;;;;;5029089;28;20041;-89
2022/05/20 01:47:06;;;;;;;38.40;33.08;;;14.30;85.20;;;;;;5038076;28;20510;-89
2022/05/20 01:49:50;;;;;;;36.63;32.22;;;14.20;85.10;;;;;;5048422;28;20045;-88
2022/05/20 01:52:35;;;;;;;37.75;33.55;;;14.20;85.30;;;;;;5039694;28;20096;-89
2022/05/20 01:55:24;;;;;;;37.33;33.38;;;14.20;85.40;;;;;;5033219;28;20026;-88
2022/05/20 01:58:01;;;;;;;39.80;33.97;;;14.30;85.30;;;;;;5030540;28;20069;-89
2022/05/20 02:00:30;;;;;;;36.78;32.88;;;14.30;85.40;;;;;;5034351;28;20065;-88
2022/05/20 02:03:08;;;;;;;37.83;33.72;;;14.30;85.40;;;;;;5032123;28;20037;-87
2022/05/20 02:05:53;;;;;;;39.03;34.08;;;14.30;85.50;;;;;;5029180;28;20117;-89
2022/05/20 02:08:31;;;;;;;35.85;32.17;;;14.40;85.40;;;;;;5031784;28;20101;-89
2022/05/20 02:11:06;;;;;;;39.53;35.20;;;14.50;85.50;;;;;;5029258;28;20071;-89
2022/05/20 02:13:34;;;;;;;37.80;33.70;;;14.50;85.50;;;;;;5031613;28;20042;-89
2022/05/20 02:16:09;;;;;;;35.78;32.08;;;14.60;85.60;;;;;;5034595;28;20371;-89
2022/05/20 02:18:52;;;;;;;38.78;33.85;;;14.60;85.50;;;;;;5025755;28;20057;-90
2022/05/20 02:21:24;;;;;;;35.72;32.05;;;14.60;85.30;;;;;;5032069;28;20076;-88
2022/05/20 02:23:57;;;;;;;37.38;33.47;;;14.60;85.20;;;;;;5026246;28;20042;-89
2022/05/20 02:26:26;;;;;;;40.45;36.03;;;14.60;85.10;;;;;;5024733;28;20273;-89
2022/05/20 02:29:00;;;;;;;42.25;37.65;;;14.60;85.20;;;;;;5034771;28;20041;-89
2022/05/20 02:31:37;;;;;;;40.93;36.33;;;14.60;85.20;;;;;;5022531;28;20396;-91
2022/05/20 02:34:03;;;;;;;39.28;32.85;;;14.60;85.30;;;;;;5036561;28;20033;-89
2022/05/20 02:36:34;;;;;;;38.38;33.72;;;14.60;85.50;;;;;;5020355;28;20488;-89
2022/05/20 02:39:01;;;;;;;40.13;35.10;;;14.60;85.70;;;;;;5032970;28;20099;-89
2022/05/20 02:41:27;;;;;;;41.53;36.08;;;14.60;85.60;;;;;;5031208;28;20045;-89
2022/05/20 02:43:54;;;;;;;39.63;35.20;;;14.60;85.50;;;;;;5036083;28;20045;-89
2022/05/20 02:46:20;;;;;;;43.30;37.72;;;14.50;85.50;;;;;;5033362;28;20063;-89
2022/05/20 02:48:45;;;;;;;41.65;37.17;;;14.40;85.60;;;;;;5027992;28;20029;-89
2022/05/20 02:51:11;;;;;;;43.50;37.17;;;14.50;85.70;;;;;;5043050;28;20056;-90
2022/05/20 02:53:37;;;;;;;39.25;34.90;;;14.40;85.70;;;;;;5036417;28;20079;-89
2022/05/20 02:56:03;;;;;;;40.88;36.05;;;14.50;85.90;;;;;;5023982;28;20493;-89
2022/05/20 03:04:09;;;;;;;41.03;36.65;;;14.20;85.90;;;;;;5034569;28;20047;-89
2022/05/20 03:06:43;;;;;;;39.83;35.70;;;14.20;86.00;;;;;;5025701;28;20807;-89
2022/05/20 03:09:11;;;;;;;39.33;35.13;;;14.20;86.10;;;;;;5031712;28;20037;-90
2022/05/20 03:11:39;;;;;;;41.88;37.40;;;14.10;86.30;;;;;;5042716;28;20044;-89
2022/05/20 03:14:08;;;;;;;41.33;36.95;;;14.10;86.30;;;;;;5040016;28;20040;-89
2022/05/20 03:16:34;;;;;;;39.28;34.53;;;14.20;86.50;;;;;;5046885;28;20067;-90
2022/05/20 03:19:00;;;;;;;46.78;41.63;;;14.20;86.60;;;;;;5043056;28;20065;-89
2022/05/20 03:21:26;;;;;;;46.35;40.55;;;14.10;86.80;;;;;;5036206;28;20064;-89
2022/05/20 03:23:52;;;;;;;44.20;39.40;;;14.00;87.50;;;;;;5034876;28;20025;-89
2022/05/20 03:26:18;;;;;;;42.33;37.88;;;14.10;87.50;;;;;;5031229;28;20513;-90
2022/05/20 03:28:45;;;;;;;42.90;38.22;;;14.10;87.50;;;;;;5032409;28;20465;-90
2022/05/20 03:31:11;;;;;;;43.80;37.95;;;14.10;87.50;;;;;;5031214;28;20025;-89
2022/05/20 03:33:39;;;;;;;41.83;37.30;;;14.10;87.40;;;;;;5030620;28;20222;-89
2022/05/20 03:36:06;;;;;;;44.53;38.30;;;14.10;87.30;;;;;;5024458;28;20037;-88
2022/05/20 03:38:32;;;;;;;43.95;38.28;;;14.00;87.40;;;;;;5030589;28;20025;-90
2022/05/20 03:40:58;;;;;;;43.53;38.90;;;14.00;87.50;;;;;;5050892;28;20044;-89
2022/05/20 03:43:24;;;;;;;43.92;38.92;;;14.00;87.50;;;;;;5040498;28;20180;-90
2022/05/20 03:45:54;;;;;;;43.10;38.42;;;14.00;87.70;;;;;;5039860;28;20060;-90
2022/05/20 03:48:21;;;;;;;42.08;37.47;;;14.00;87.70;;;;;;5040489;28;20465;-90
2022/05/20 03:50:47;;;;;;;42.65;38.08;;;14.00;87.80;;;;;;5037086;28;20404;-90
2022/05/20 03:53:13;;;;;;;41.08;36.58;;;14.10;87.80;;;;;;5030306;28;20037;-89
2022/05/20 03:55:39;;;;;;;45.92;39.47;;;14.10;87.80;;;;;;5023309;28;20040;-89
2022/05/20 03:58:05;;;;;;;43.08;38.38;;;14.10;87.60;;;;;;5037296;28;20026;-90
2022/05/20 04:00:31;;;;;;;41.10;36.65;;;14.10;87.50;;;;;;5032179;28;20397;-90
2022/05/20 04:02:56;;;;;;;40.50;36.25;;;14.10;87.40;;;;;;5032984;28;20052;-88
2022/05/20 04:05:22;;;;;;;41.50;36.25;;;14.10;87.40;;;;;;5031260;28;20041;-88
2022/05/20 04:07:49;;;;;;;43.65;37.85;;;14.10;87.30;;;;;;5041683;28;20033;-89
2022/05/20 04:10:15;;;;;;;41.95;37.20;;;14.10;87.00;;;;;;5021779;28;20129;-89
2022/05/20 04:12:42;;;;;;;45.28;38.20;;;14.00;87.10;;;;;;5030230;28;20031;-88
2022/05/20 04:15:11;;;;;;;42.42;37.53;;;14.00;87.10;;;;;;5034493;28;20149;-90
2022/05/20 04:17:36;;;;;;;47.95;39.33;;;14.00;87.00;;;;;;5020045;28;20042;-89
2022/05/20 04:20:04;;;;;;;44.53;39.28;;;14.00;87.10;;;;;;5015225;28;20041;-89
2022/05/20 04:22:32;;;;;;;41.80;37.30;;;14.10;87.00;;;;;;5029094;28;20738;-90
2022/05/20 04:24:58;;;;;;;48.47;38.67;;;14.10;87.00;;;;;;5028688;28;20038;-88
2022/05/20 04:27:24;;;;;;;43.92;37.00;;;14.10;86.90;;;;;;5009926;28;20057;-90
2022/05/20 04:29:50;;;;;;;44.58;38.60;;;14.10;87.00;;;;;;5020584;28;20084;-89
2022/05/20 04:32:16;;;;;;;45.63;39.13;;;14.20;87.00;;;;;;5030115;28;20029;-87
2022/05/20 04:34:42;;;;;;;39.35;35.08;;;14.20;87.10;;;;;;5040279;28;20042;-91
2022/05/20 04:37:08;;;;;;;44.10;37.10;;;14.30;86.90;;;;;;5030578;28;20113;-90
2022/05/20 04:39:34;;;;;;;39.65;34.95;;;14.30;86.70;;;;;;5018944;28;20124;-89
2022/05/20 04:47:30;;;;;;;41.03;36.47;;;14.60;86.40;;;;;;5022766;28;20116;-89
2022/05/20 04:49:56;;;;;;;42.90;38.28;;;14.70;86.00;;;;;;5027396;28;20028;-89
2022/05/20 04:52:22;;;;;;;42.15;37.45;;;14.80;85.50;;;;;;5016812;28;20136;-90
2022/05/20 04:54:51;;;;;;;42.60;37.95;;;14.80;85.70;;;;;;5022555;28;20485;-88
2022/05/20 04:57:28;;;;;;;42.30;35.30;;;14.80;85.20;;;;;;5016392;28;20038;-90
2022/05/20 04:59:59;;;;;;;45.40;39.72;;;14.90;85.40;;;;;;5019545;28;20092;-88
2022/05/20 05:02:25;;;;;;;45.53;40.60;;;14.70;85.30;;;;;;5025036;28;20141;-88
2022/05/20 05:04:51;;;;;;;45.08;40.13;;;14.80;85.90;;;;;;5030612;28;20128;-88
2022/05/20 05:07:16;;;;;;;45.17;37.63;;;14.90;85.90;;;;;;5024272;28;20084;-89
2022/05/20 05:09:44;;;;;;;46.08;39.75;;;15.00;85.80;;;;;;5024008;28;20096;-89
2022/05/20 05:12:11;;;;;;;46.97;40.75;;;15.20;85.40;;;;;;5025147;28;20488;-90
2022/05/20 05:14:39;;;;;;;39.90;35.42;;;15.40;85.10;;;;;;5024648;28;20033;-87
2022/05/20 05:17:07;;;;;;;43.17;38.35;;;15.70;84.70;;;;;;5021792;28;20041;-88
2022/05/20 05:19:35;;;;;;;41.55;36.92;;;16.20;83.50;;;;;;5021984;28;20053;-89
2022/05/20 05:22:04;;;;;;;40.88;36.17;;;17.40;80.90;;;;;;5018601;28;20038;-87
2022/05/20 05:24:29;;;;;;;40.55;35.53;;;18.30;75.30;;;;;;5026385;28;20030;-89
2022/05/20 05:26:55;;;;;;;42.20;36.42;;;18.20;73.90;;;;;;5031456;28;20046;-88
2022/05/20 05:29:21;;;;;;;43.83;37.30;;;17.90;74.30;;;;;;5024733;28;20061;-91
2022/05/20 05:31:48;;;;;;;43.58;36.97;;;17.60;75.60;;;;;;5031273;28;20148;-88
2022/05/20 05:34:14;;;;;;;41.15;36.42;;;17.00;77.50;;;;;;5026457;28;20037;-88
2022/05/20 05:36:43;;;;;;;44.00;39.22;;;16.60;79.70;;;;;;5019925;28;20057;-90
2022/05/20 05:39:10;;;;;;;44.03;37.88;;;16.60;80.10;;;;;;5029699;28;20037;-89
2022/05/20 05:41:42;;;;;;;43.40;38.35;;;16.90;79.60;;;;;;5038620;28;20069;-86
2022/05/20 05:44:08;;;;;;;42.17;36.88;;;17.30;79.10;;;;;;5025109;28;20040;-88
2022/05/20 05:46:34;;;;;;;42.85;36.38;;;18.30;77.10;;;;;;5034012;28;20101;-89
2022/05/20 05:49:00;;;;;;;42.42;37.38;;;18.70;74.40;;;;;;5046722;28;20048;-89
2022/05/20 05:51:26;;;;;;;42.17;37.60;;;19.20;72.50;;;;;;5048158;28;20045;-88
2022/05/20 05:53:52;;;;;;;41.80;37.10;;;19.10;72.00;;;;;;5050947;28;20057;-89
2022/05/20 05:56:19;;;;;;;44.97;40.10;;;19.10;72.30;;;;;;5032359;28;20088;-89
2022/05/20 05:58:45;;;;;;;47.42;42.08;;;18.60;73.30;;;;;;5030017;28;20041;-92
2022/05/20 06:01:12;;;;;;;49.75;42.75;;;17.90;76.10;;;;;;5050198;28;20041;-90
2022/05/20 06:03:37;;;;;;;50.30;43.17;;;17.60;77.60;;;;;;5034701;28;20053;-89
2022/05/20 06:06:03;;;;;;;57.00;45.67;;;17.70;78.00;;;;;;5022528;28;20034;-91
2022/05/20 06:08:29;;;;;;;54.03;45.42;;;17.60;77.40;;;;;;5022251;28;20040;-90
2022/05/20 06:10:55;;;;;;;54.85;48.65;;;17.40;77.90;;;;;;5025363;28;20093;-91
2022/05/20 06:13:24;;;;;;;55.08;46.13;;;17.30;79.00;;;;;;5026824;28;20044;-89
2022/05/20 06:15:50;;;;;;;53.30;46.60;;;17.10;79.70;;;;;;5040137;28;20090;-88
2022/05/20 06:18:16;;;;;;;55.40;48.88;;;17.00;79.70;;;;;;5031803;28;25590;-91
2022/05/20 06:20:42;;;;;;;59.03;49.13;;;16.90;80.90;;;;;;5033638;28;20069;-91
2022/05/20 06:23:07;;;;;;;55.60;46.63;;;17.00;81.00;;;;;;5025104;28;20032;-90
2022/05/20 06:25:33;;;;;;;56.60;45.83;;;17.20;81.50;;;;;;5030736;28;20041;-91
2022/05/20 06:28:07;;;;;;;55.00;46.17;;;17.50;80.90;;;;;;5021705;28;20033;-91
2022/05/20 06:30:33;;;;;;;50.83;44.47;;;17.80;79.80;;;;;;5032976;28;20044;-90
2022/05/20 06:33:01;;;;;;;49.70;44.17;;;17.90;79.30;;;;;;5036420;28;20041;-87
2022/05/20 06:40:55;;;;;;;51.08;42.75;;;18.30;76.60;;;;;;5038428;28;19916;-91
2022/05/20 06:43:21;;;;;;;48.10;42.35;;;18.50;77.60;;;;;;5034336;28;20103;-90
2022/05/20 06:45:56;;;;;;;48.15;42.03;;;18.70;76.80;;;;;;5026742;28;20056;-81
2022/05/20 06:48:22;;;;;;;47.70;42.10;;;18.90;76.70;;;;;;5020969;28;20042;-81
2022/05/20 06:50:48;;;;;;;48.92;43.33;;;19.00;75.20;;;;;;5027776;28;20069;-83
2022/05/20 06:53:14;;;;;;;48.38;43.20;;;19.00;75.30;;;;;;5015100;28;20038;-82
2022/05/20 06:55:41;;;;;;;48.28;43.03;;;19.10;75.20;;;;;;5016810;28;20452;-81
2022/05/20 06:58:06;;;;;;;46.75;41.72;;;19.10;74.80;;;;;;5017210;28;20033;-83
2022/05/20 07:00:32;;;;;;;48.67;43.55;;;18.90;74.40;;;;;;5029004;28;20412;-83
2022/05/20 07:02:58;;;;;;;47.92;42.88;;;18.90;75.20;;;;;;5019298;28;20467;-81
2022/05/20 07:05:24;;;;;;;47.45;42.42;;;18.90;75.50;;;;;;5025650;28;20615;-81
2022/05/20 07:07:50;;;;;;;46.83;41.88;;;19.00;75.00;;;;;;5018111;28;20046;-83
2022/05/20 07:10:16;;;;;;;47.85;42.08;;;19.10;75.10;;;;;;5004661;28;20046;-81
2022/05/20 07:12:42;;;;;;;45.03;40.13;;;19.10;75.00;;;;;;5013267;28;20048;-82
2022/05/20 07:15:08;;;;;;;45.00;40.20;;;19.10;75.00;;;;;;5019361;28;20086;-82
2022/05/20 07:17:36;;;;;;;44.85;40.05;;;19.10;74.20;;;;;;5013066;28;20057;-82
2022/05/20 07:20:03;;;;;;;47.60;39.92;;;19.10;73.40;;;;;;5011752;28;20022;-83
2022/05/20 07:22:30;;;;;;;45.25;39.97;;;19.10;74.30;;;;;;5015511;28;20057;-84
2022/05/20 07:24:56;;;;;;;41.90;37.53;;;19.10;74.40;;;;;;5016203;28;20429;-83
2022/05/20 07:27:21;;;;;;;44.83;39.97;;;19.10;74.80;;;;;;5025225;28;20033;-83
2022/05/20 07:29:47;;;;;;;44.60;39.58;;;19.00;74.10;;;;;;5016527;28;20404;-83
2022/05/20 07:32:13;;;;;;;43.95;38.70;;;18.90;74.10;;;;;;5011033;28;20049;-82
2022/05/20 07:34:38;;;;;;;44.10;39.28;;;18.80;75.30;;;;;;5013327;28;20038;-81
2022/05/20 07:37:05;;;;;;;42.75;38.35;;;18.80;75.70;;;;;;5019736;28;20385;-82
2022/05/20 07:39:30;;;;;;;38.17;34.22;;;19.00;74.70;;;;;;5005807;28;20404;-81
2022/05/20 07:41:56;;;;;;;40.78;36.58;;;19.30;74.40;;;;;;5012815;28;20430;-81
2022/05/20 07:44:22;;;;;;;36.95;33.08;;;19.60;72.50;;;;;;5010453;28;20042;-85
2022/05/20 07:46:48;;;;;;;37.42;33.47;;;19.80;71.80;;;;;;5013194;28;20046;-82
2022/05/20 07:49:13;;;;;;;40.85;36.55;;;20.10;71.60;;;;;;5010833;28;20042;-84
2022/05/20 07:51:45;;;;;;;41.53;36.28;;;20.00;71.30;;;;;;5014635;28;20040;-81
2022/05/20 07:54:15;;;;;;;41.30;36.88;;;19.60;72.30;;;;;;5020145;28;20052;-83
2022/05/20 07:56:52;;;;;;;37.85;33.80;;;19.60;72.80;;;;;;5009294;28;20552;-82
2022/05/20 07:59:25;;;;;;;37.63;33.72;;;19.80;72.70;;;;;;5008319;28;20497;-83
2022/05/20 08:01:53;;;;;;;40.65;36.35;;;20.00;70.90;;;;;;5007053;28;20528;-83
2022/05/20 08:07:15;;;;;;;39.35;35.00;;;19.90;72.20;;;;;;5018501;28;20041;-85
2022/05/20 08:09:41;;;;;;;38.88;34.67;;;20.10;71.70;;;;;;5019829;28;20068;-83
2022/05/20 08:12:10;;;;;;;40.33;36.03;;;20.30;71.30;;;;;;5022870;28;20029;-83
2022/05/20 08:14:36;;;;;;;40.92;35.47;;;20.40;70.50;;;;;;5034017;28;20044;-85
2022/05/20 08:17:03;;;;;;;40.08;34.60;;;20.60;69.70;;;;;;5033105;28;20499;-84
2022/05/20 08:19:29;;;;;;;38.83;33.55;;;20.70;69.60;;;;;;5015142;28;20080;-84
2022/05/20 08:21:55;;;;;;;37.67;33.78;;;20.60;69.70;;;;;;5005782;28;20408;-84
2022/05/20 08:24:21;;;;;;;38.88;34.42;;;20.80;69.40;;;;;;5012112;28;20473;-83
2022/05/20 08:26:47;;;;;;;36.33;32.45;;;20.90;69.30;;;;;;5015552;28;20033;-81
2022/05/20 08:29:13;;;;;;;37.10;33.20;;;20.90;68.80;;;;;;5016181;28;20037;-82
2022/05/20 08:31:40;;;;;;;37.90;33.45;;;20.80;68.80;;;;;;5026710;28;20057;-83
2022/05/20 08:34:07;;;;;;;35.38;31.52;;;20.80;68.90;;;;;;5038696;28;20038;-82
2022/05/20 08:36:32;;;;;;;36.45;32.25;;;20.70;69.20;;;;;;5021792;28;20041;-85
2022/05/20 08:38:58;;;;;;;37.03;33.10;;;20.70;69.50;;;;;;5026973;28;20047;-83
2022/05/20 08:41:30;;;;;;;36.38;32.58;;;20.60;69.70;;;;;;5022281;28;20416;-81
2022/05/20 08:43:55;;;;;;;36.42;32.10;;;20.50;70.20;;;;;;5013642;28;20122;-84
2022/05/20 08:46:23;;;;;;;32.28;28.42;;;20.60;69.60;;;;;;5024422;28;20092;-83
2022/05/20 08:48:52;;;;;;;32.47;28.40;;;20.80;69.20;;;;;;5019178;28;20411;-80
2022/05/20 08:51:18;;;;;;;33.13;29.40;;;20.90;68.70;;;;;;5015303;28;20411;-84
2022/05/20 08:53:46;;;;;;;33.65;29.13;;;21.10;68.10;;;;;;5019347;28;20129;-83
2022/05/20 08:56:17;;;;;;;34.28;30.63;;;21.20;67.30;;;;;;5018236;28;20176;-80
2022/05/20 08:59:07;;;;;;;33.65;30.08;;;21.40;68.10;;;;;;5018393;28;20144;-83
2022/05/20 09:01:45;;;;;;;33.90;28.83;;;21.40;66.10;;;;;;5021960;28;20062;-83
2022/05/20 09:04:13;;;;;;;34.30;29.98;;;21.70;66.60;;;;;;5029196;28;20056;-82
2022/05/20 09:06:56;;;;;;;34.53;30.83;;;22.00;66.10;;;;;;5029686;28;20259;-83
2022/05/20 09:09:22;;;;;;;32.97;29.00;;;21.90;65.80;;;;;;5015576;28;20038;-80
2022/05/20 09:11:57;;;;;;;34.60;31.10;;;21.70;65.80;;;;;;5022204;28;20041;-81
2022/05/20 09:17:15;;;;;;;33.40;28.42;;;22.00;65.60;;;;;;5025716;28;20112;-82
2022/05/20 09:20:04;;;;;;;33.92;30.40;;;22.00;66.20;;;;;;5010781;28;20038;-83
2022/05/20 09:22:37;;;;;;;34.67;28.48;;;22.00;66.10;;;;;;5020035;28;20463;-82
2022/05/20 09:25:18;;;;;;;32.47;29.08;;;22.10;65.70;;;;;;5020971;28;20161;-82
2022/05/20 09:27:44;;;;;;;32.63;28.60;;;22.20;64.50;;;;;;5022903;28;20033;-81
2022/05/20 09:30:13;;;;;;;34.00;29.65;;;22.20;65.20;;;;;;5014004;28;20493;-82
2022/05/20 09:32:43;;;;;;;34.85;31.30;;;22.10;65.90;;;;;;5022294;28;20160;-83
2022/05/20 09:35:23;;;;;;;33.67;30.38;;;21.90;66.70;;;;;;5023796;28;20084;-83
2022/05/20 09:37:51;;;;;;;34.28;30.63;;;21.70;66.70;;;;;;5018753;28;20349;-80
2022/05/20 09:40:32;;;;;;;34.30;30.63;;;21.60;67.60;;;;;;5019044;28;20046;-83
2022/05/20 09:43:02;;;;;;;40.65;33.10;;;21.50;68.50;;;;;;5025350;28;20560;-82
2022/05/20 09:45:28;;;;;;;37.75;33.67;;;21.50;68.90;;;;;;5017624;28;20048;-82
2022/05/20 09:47:57;;;;;;;38.30;34.22;;;21.40;69.50;;;;;;5024207;28;20045;-83
2022/05/20 09:50:38;;;;;;;37.03;32.95;;;21.30;69.80;;;;;;5016780;28;20033;-81
2022/05/20 09:53:33;;;;;;;37.33;33.40;;;21.30;69.90;;;;;;5028871;28;20026;-84
2022/05/20 09:56:23;;;;;;;37.55;33.58;;;21.40;70.50;;;;;;5025816;28;20037;-83
2022/05/20 09:59:05;;;;;;;38.13;34.13;;;21.40;70.00;;;;;;5021220;28;20485;-84
2022/05/20 10:01:31;;;;;;;37.97;33.95;;;21.40;69.80;;;;;;5021437;28;20049;-81
2022/05/20 10:04:02;;;;;;;40.38;36.03;;;21.20;69.90;;;;;;5021835;28;20569;-81
2022/05/20 10:06:41;;;;;;;39.30;35.10;;;21.10;70.40;;;;;;5020089;28;20041;-82
2022/05/20 10:09:16;;;;;;;41.63;37.33;;;21.00;72.00;;;;;;5020136;28;20473;-85
2022/05/20 10:11:54;;;;;;;40.92;36.55;;;20.90;73.20;;;;;;5015043;28;20041;-83
2022/05/20 10:14:24;;;;;;;44.38;39.70;;;20.80;75.00;;;;;;5029602;28;20094;-83
2022/05/20 10:16:56;;;;;;;42.40;37.92;;;20.80;76.40;;;;;;5032307;28;20044;-83
2022/05/20 10:20:20;;;;;;;44.15;39.45;;;20.70;76.70;;;;;;5028285;28;20072;-81
2022/05/20 10:22:45;;;;;;;43.75;39.10;;;20.60;76.30;;;;;;4947258;28;20580;-82
2022/05/20 10:25:42;;;;;;;47.38;42.38;;;20.50;76.70;;;;;;4961244;28;20047;-81
2022/05/20 10:32:34;;;;;;;45.47;40.63;;;20.40;76.70;;;;;;4986812;28;20049;-80
2022/05/20 10:34:11;;;;;;;;;;;20.30;79.00;;;;;;5033807;28;20462;-83
2022/05/20 10:37:00;;;;;;;49.50;44.22;;;20.20;79.30;;;;;;5017489;28;19917;-81
2022/05/20 10:39:38;;;;;;;51.88;46.45;;;20.20;79.80;;;;;;5002187;28;20587;-83
2022/05/20 10:42:29;;;;;;;52.65;46.80;;;20.10;80.20;;;;;;5016220;28;20160;-83
2022/05/20 10:48:34;;;;;;;51.25;45.70;;;20.20;81.40;;;;;;5008227;28;20084;-83
2022/05/20 10:51:32;;;;;;;49.08;43.85;;;20.20;80.70;;;;;;4963881;28;20057;-81
2022/05/20 10:54:20;;;;;;;49.63;43.55;;;20.10;80.40;;;;;;5007845;28;20061;-82
2022/05/20 10:57:20;;;;;;;51.00;45.25;;;20.10;80.90;;;;;;5011974;28;20152;-83
2022/05/20 11:00:11;;;;;;;51.70;44.97;;;20.00;81.50;;;;;;5008411;28;20555;-81
2022/05/20 11:02:59;;;;;;;52.65;46.47;;;20.00;81.80;;;;;;5001584;28;20048;-82
2022/05/20 11:06:10;;;;;;;47.65;42.25;;;20.10;82.50;;;;;;5008631;28;20489;-81
2022/05/20 11:08:35;;;;;;;54.72;45.45;;;20.10;82.20;;;;;;5013692;28;20504;-80
2022/05/20 11:11:23;;;;;;;52.83;46.80;;;20.20;82.30;;;;;;5009693;28;20037;-84
2022/05/20 11:14:00;;;;;;;49.50;43.60;;;20.40;82.10;;;;;;5009802;28;20034;-82
2022/05/20 11:16:55;;;;;;;50.25;43.28;;;20.60;81.80;;;;;;5009692;28;20048;-83
2022/05/20 11:19:29;;;;;;;55.10;46.05;;;20.50;82.00;;;;;;5008817;28;20610;-82
2022/05/20 11:22:15;;;;;;;52.90;46.33;;;20.20;82.50;;;;;;5009570;28;20983;-83
2022/05/20 11:25:31;;;;;;;38.47;34.47;;;20.00;83.20;;;;;;5007056;28;20045;-82
2022/05/20 11:28:20;;;;;;;37.10;33.17;;;19.30;82.00;;;;;;4965249;28;20054;-83
2022/05/20 11:31:09;;;;;;;39.75;35.45;;;19.00;83.10;;;;;;5011122;28;20508;-81
2022/05/20 11:34:00;;;;;;;39.58;35.55;;;19.00;83.00;;;;;;5003455;28;20038;-81
2022/05/20 11:36:52;;;;;;;41.42;37.13;;;19.00;83.50;;;;;;5015078;28;20569;-82
2022/05/20 11:39:30;;;;;;;38.47;34.17;;;18.90;83.60;;;;;;5017832;28;20060;-83
2022/05/20 11:42:11;;;;;;;42.38;37.85;;;18.90;83.90;;;;;;5033947;28;20358;-85
2022/05/20 11:45:16;;;;;;;39.47;35.45;;;19.00;83.70;;;;;;5017118;28;20042;-82
2022/05/20 11:47:54;;;;;;;38.70;34.70;;;19.00;83.90;;;;;;5010605;28;20405;-83
2022/05/20 11:50:38;;;;;;;38.42;34.33;;;19.10;83.80;;;;;;5016635;28;20041;-81
2022/05/20 11:53:20;;;;;;;;;;;19.00;83.50;;;;;;5014231;28;21054;-83
2022/05/20 11:55:49;;;;;;;38.60;34.42;;;18.80;83.90;;;;;;5012027;28;20336;-85
2022/05/20 11:58:38;;;;;;;39.22;34.90;;;18.70;83.70;;;;;;5017065;28;20509;-83
2022/05/20 12:01:06;;;;;;;39.08;35.05;;;18.80;84.20;;;;;;5018063;28;20055;-83
2022/05/20 12:04:07;;;;;;;39.72;35.47;;;18.70;84.30;;;;;;5015462;28;20523;-82
2022/05/20 12:06:23;;;;;;;40.38;36.15;;;18.60;84.30;;;;;;5009581;28;20042;-82
2022/05/20 12:08:54;;;;;;;44.28;39.75;;;18.50;84.80;;;;;;5014382;28;20037;-81
2022/05/20 12:11:35;;;;;;;45.40;40.83;;;18.40;84.70;;;;;;5017815;28;20319;-81
2022/05/20 12:14:19;;;;;;;46.60;42.08;;;18.30;85.40;;;;;;5011066;28;20421;-80
2022/05/20 12:17:03;;;;;;;49.55;44.53;;;18.20;85.60;;;;;;5017930;28;20072;-80
2022/05/20 12:25:37;;;;;;;58.15;51.88;;;17.80;85.80;;;;;;5003833;28;20072;-80
2022/05/20 12:28:42;;;;;;;60.22;53.72;;;17.60;86.40;;;;;;5014540;28;20681;-80
2022/05/20 12:31:19;;;;;;;62.53;55.90;;;17.50;86.80;;;;;;5009570;28;20079;-81
2022/05/20 12:34:05;;;;;;;63.45;56.08;;;17.40;87.20;;;;;;5007119;28;20496;-81
2022/05/20 12:36:30;;;;;;;61.75;55.17;;;17.30;87.50;;;;;;5011097;28;20030;-81
2022/05/20 12:39:12;;;;;;;61.97;55.22;;;17.40;87.90;;;;;;5007895;28;20550;-79
2022/05/20 12:41:53;;;;;;;64.43;57.35;;;17.40;87.90;;;;;;5012095;28;20045;-78
2022/05/20 12:44:21;;;;;;;65.82;57.92;;;17.50;88.10;;;;;;5012729;28;20777;-79
2022/05/20 12:47:05;;;;;;;69.53;62.05;;;17.20;88.50;;;;;;5021669;28;20388;-79
2022/05/20 12:49:58;;;;;;;60.13;53.08;;;17.00;89.30;;;;;;5012497;28;20037;-79
2022/05/20 12:52:31;;;;;;;21.65;19.35;;;16.60;89.20;;;;;;5010753;28;20061;-81
2022/05/20 12:55:12;;;;;;;19.17;15.35;;;15.80;87.30;;;;;;5014311;28;20048;-81
2022/05/20 12:57:52;;;;;;;19.60;17.50;;;15.40;87.00;;;;;;5017720;28;20045;-80
2022/05/20 13:00:26;;;;;;;20.45;17.30;;;15.40;87.60;;;;;;5012067;28;20018;-80
2022/05/20 13:03:19;;;;;;;15.10;12.95;;;15.30;88.20;;;;;;5010085;28;20042;-80
2022/05/20 13:06:11;;;;;;;9.13;5.28;;;15.00;87.10;;;;;;5014134;28;20033;-79
2022/05/20 13:08:52;;;;;;;9.25;5.82;;;14.00;86.30;;;;;;5019202;28;20451;-82
2022/05/20 13:11:23;;;;;;;11.02;6.32;;;13.80;86.60;;;;;;5018038;28;20061;-79
2022/05/20 13:13:54;;;;;;;9.18;6.60;;;13.80;87.10;;;;;;5014053;28;20040;-78
2022/05/20 13:16:21;;;;;;;9.13;6.97;;;13.90;87.10;;;;;;5020039;28;20033;-80
2022/05/20 13:18:59;;;;;;;8.18;5.55;;;14.00;87.60;;;;;;5024628;28;20045;-78
2022/05/20 13:21:27;;;;;;;7.35;4.80;;;14.10;87.00;;;;;;5019416;28;20056;-82
2022/05/20 13:23:54;;;;;;;7.25;4.35;;;14.10;86.10;;;;;;5018260;28;20034;-81
2022/05/20 13:26:23;;;;;;;6.15;3.83;;;14.40;86.50;;;;;;5013639;28;20034;-80
2022/05/20 13:28:50;;;;;;;12.35;3.92;;;14.50;86.40;;;;;;5011799;28;20385;-80